Time;durP1;ratioP1;P1;durP2;ratioP2;P2;SDS_P1;SDS_P2;PMS_P1;PMS_P2;Temp;Humidity;BMP_temperature;BMP_pressure;BME280_temperature;BME280_humidity;BME280_pressure;Samples;Min_cycle;Max_cycle;Signal;HPM_P1;HPM_P2
2022/12/15 00:40:59;;;;;;;11.38;7.65;;;;;;;-5.90;88.66;100680.19;6189451;23;20014;-80
2022/12/15 00:43:27;;;;;;;13.68;7.95;;;;;;;-5.88;88.67;100683.19;6191329;23;20017;-80
2022/12/15 00:48:45;;;;;;;16.63;7.88;;;;;;;-5.87;88.81;100689.88;6189695;23;20462;-80
2022/12/15 00:51:14;;;;;;;12.35;6.75;;;;;;;-5.85;88.88;100695.50;6189197;23;20017;-79
2022/12/15 01:21:30;;;;;;;22.27;7.65;;;;;;;-5.71;87.98;100722.59;6201162;23;20020;-79
2022/12/15 01:23:57;;;;;;;12.40;6.70;;;;;;;-5.76;88.16;100715.03;6205818;23;20014;-79
2022/12/15 01:26:24;;;;;;;13.15;6.57;;;;;;;-5.78;88.24;100713.84;6201137;23;20017;-79
2022/12/15 01:28:54;;;;;;;11.57;7.18;;;;;;;-5.77;87.99;100716.13;6201487;23;20010;-79
2022/12/15 01:31:20;;;;;;;11.30;7.60;;;;;;;-5.76;88.52;100725.41;6205019;23;20014;-79
2022/12/15 01:33:47;;;;;;;15.07;7.25;;;;;;;-5.78;88.39;100727.56;6203174;23;20081;-79
2022/12/15 01:36:14;;;;;;;16.48;8.82;;;;;;;-5.81;88.26;100728.22;6201954;23;20017;-79
2022/12/15 01:38:41;;;;;;;16.33;9.20;;;;;;;-5.85;88.30;100724.78;6195767;23;20076;-79
2022/12/15 01:41:09;;;;;;;16.55;8.38;;;;;;;-5.88;88.11;100725.44;6194575;23;20069;-79
2022/12/15 01:43:38;;;;;;;14.23;8.00;;;;;;;-5.92;87.98;100727.19;6194209;23;20068;-79
2022/12/15 01:46:16;;;;;;;18.20;8.05;;;;;;;-5.89;88.13;100733.56;6193100;23;20018;-78
2022/12/15 01:48:47;;;;;;;15.25;7.65;;;;;;;-5.86;88.24;100725.09;6166334;23;20021;-80
2022/12/15 01:51:17;;;;;;;12.32;7.05;;;;;;;-5.84;88.43;100721.09;6193715;23;20068;-79
2022/12/15 01:54:09;;;;;;;15.20;7.82;;;;;;;-5.83;88.27;100730.38;6190477;23;20100;-79
2022/12/15 01:56:43;;;;;;;11.63;6.57;;;;;;;-5.82;88.30;100734.50;6191224;23;20018;-80
2022/12/15 01:59:15;;;;;;;8.63;6.45;;;;;;;-5.81;87.68;100743.03;6193080;23;20415;-80
2022/12/15 02:01:42;;;;;;;13.38;7.22;;;;;;;-5.79;88.09;100748.63;6191156;23;20028;-78
2022/12/15 02:04:18;;;;;;;10.50;6.18;;;;;;;-5.83;88.04;100740.00;6190812;23;20019;-79
2022/12/15 02:06:45;;;;;;;9.40;6.47;;;;;;;-5.82;87.77;100746.69;6191742;23;20483;-79
2022/12/15 02:09:13;;;;;;;13.95;7.88;;;;;;;-5.81;88.10;100748.22;6191003;23;20017;-79
2022/12/15 02:11:52;;;;;;;12.35;7.13;;;;;;;-5.78;87.77;100753.50;6190299;23;20021;-80
2022/12/15 02:14:45;;;;;;;12.38;6.63;;;;;;;-5.78;87.67;100747.56;6190231;23;20017;-79
2022/12/15 02:17:34;;;;;;;11.75;6.28;;;;;;;-5.76;87.74;100748.00;6189259;23;20014;-79
2022/12/15 02:20:27;;;;;;;14.43;7.85;;;;;;;-5.73;87.75;100744.75;6188856;23;20024;-79
2022/12/15 02:23:17;;;;;;;12.25;6.47;;;;;;;-5.78;87.60;100742.38;6190699;23;20387;-79
2022/12/15 02:26:43;;;;;;;18.92;7.03;;;;;;;-5.76;87.16;100745.41;6190659;23;20048;-78
2022/12/15 02:29:25;;;;;;;10.45;6.32;;;;;;;-5.76;87.60;100748.75;6107940;23;20536;-80
2022/12/15 02:31:59;;;;;;;12.70;6.93;;;;;;;-5.76;87.43;100751.34;6103158;23;20437;-78
2022/12/15 02:34:44;;;;;;;11.25;7.38;;;;;;;-5.79;87.46;100740.88;6106528;23;20023;-80
2022/12/15 02:37:10;;;;;;;10.43;6.05;;;;;;;-5.82;87.43;100736.34;6104665;23;20493;-80
2022/12/15 02:39:37;;;;;;;9.45;6.60;;;;;;;-5.84;87.56;100741.84;6081330;23;20026;-80
2022/12/15 02:42:04;;;;;;;9.63;6.70;;;;;;;-5.85;87.38;100742.94;6103652;23;20900;-80
2022/12/15 02:44:36;;;;;;;11.95;6.63;;;;;;;-5.88;87.11;100745.41;6075546;23;20051;-79
2022/12/15 02:47:34;;;;;;;13.10;7.60;;;;;;;-5.89;87.08;100749.13;6098699;23;20480;-80
2022/12/15 02:50:18;;;;;;;12.25;7.80;;;;;;;-5.91;87.09;100741.66;6074642;23;20030;-79
2022/12/15 02:53:17;;;;;;;16.60;6.95;;;;;;;-5.91;87.21;100743.50;6099064;23;20022;-79
2022/12/15 02:55:58;;;;;;;12.05;7.13;;;;;;;-5.95;87.12;100751.19;6075359;23;20019;-79
2022/12/15 02:58:37;;;;;;;11.15;6.80;;;;;;;-5.96;87.33;100756.69;6075405;23;20019;-79
2022/12/15 03:01:41;;;;;;;10.43;6.72;;;;;;;-5.98;87.36;100756.25;6110062;23;20422;-79
2022/12/15 03:04:10;;;;;;;11.30;6.25;;;;;;;-5.98;87.05;100751.84;6135673;23;20900;-79
2022/12/15 03:06:41;;;;;;;10.23;6.28;;;;;;;-5.99;86.97;100752.16;6158867;23;20021;-79
2022/12/15 03:09:08;;;;;;;13.88;7.45;;;;;;;-6.01;87.11;100762.13;6191434;23;20407;-79
2022/12/15 03:11:35;;;;;;;11.60;6.68;;;;;;;-6.03;87.35;100762.44;6188600;23;20024;-80
2022/12/15 03:14:02;;;;;;;10.75;6.43;;;;;;;-6.05;87.07;100767.19;6188255;23;20022;-78
2022/12/15 03:16:29;;;;;;;14.45;6.50;;;;;;;-6.02;87.17;100770.97;6188395;23;20459;-78
2022/12/15 03:18:56;;;;;;;13.68;6.82;;;;;;;-6.00;87.14;100769.56;6190172;23;20014;-78
2022/12/15 03:21:23;;;;;;;13.93;6.88;;;;;;;-5.97;87.59;100770.72;6165574;23;20062;-79
2022/12/15 03:23:50;;;;;;;14.25;6.88;;;;;;;-5.94;87.32;100777.84;6194978;23;20084;-79
2022/12/15 03:26:17;;;;;;;9.77;6.05;;;;;;;-5.94;87.36;100780.44;6199254;23;20014;-79
2022/12/15 03:28:44;;;;;;;9.73;6.10;;;;;;;-5.90;87.33;100779.47;6195238;23;20013;-78
2022/12/15 03:31:11;;;;;;;12.50;6.90;;;;;;;-5.87;87.27;100772.84;6198605;23;20072;-78
2022/12/15 03:33:39;;;;;;;14.38;7.50;;;;;;;-5.87;87.32;100781.38;6202246;23;20022;-79
2022/12/15 03:36:07;;;;;;;16.17;7.88;;;;;;;-5.87;87.32;100770.25;6202995;23;20065;-77
2022/12/15 03:38:33;;;;;;;11.98;7.13;;;;;;;-5.84;87.15;100774.78;6201939;23;20045;-79
2022/12/15 03:41:00;;;;;;;13.10;7.10;;;;;;;-5.81;87.40;100779.31;6205386;23;20017;-78
2022/12/15 03:43:27;;;;;;;15.60;7.40;;;;;;;-5.81;87.17;100790.47;6203654;23;20486;-79
2022/12/15 03:45:55;;;;;;;12.35;7.55;;;;;;;-5.84;87.42;100782.56;6195798;23;20036;-79
2022/12/15 03:48:21;;;;;;;12.27;6.85;;;;;;;-5.85;87.62;100781.06;6192569;23;20017;-79
2022/12/15 03:50:48;;;;;;;14.05;7.15;;;;;;;-5.82;87.73;100788.19;6192114;23;20084;-79
2022/12/15 03:53:15;;;;;;;19.23;8.45;;;;;;;-5.84;87.46;100779.97;6191711;23;20018;-79
2022/12/15 03:55:45;;;;;;;15.50;7.70;;;;;;;-5.87;87.60;100786.56;6192921;23;20420;-80
2022/12/15 03:58:11;;;;;;;12.52;7.53;;;;;;;-5.87;87.81;100785.81;6193978;23;20013;-80
2022/12/15 04:00:41;;;;;;;18.10;7.75;;;;;;;-5.92;87.99;100773.09;6190226;23;20048;-79
2022/12/15 04:03:11;;;;;;;9.05;6.63;;;;;;;-5.93;88.11;100777.53;6190874;23;20101;-79
2022/12/15 04:05:39;;;;;;;15.55;7.55;;;;;;;-5.95;87.77;100779.69;6191387;23;20089;-79
2022/12/15 04:08:05;;;;;;;12.43;7.07;;;;;;;-5.98;87.53;100788.13;6188780;23;20028;-79
2022/12/15 04:10:33;;;;;;;12.18;7.50;;;;;;;-6.02;87.95;100779.50;6190837;23;20022;-79
2022/12/15 04:13:09;;;;;;;13.65;8.43;;;;;;;-6.05;87.63;100790.53;6190932;23;20404;-80
2022/12/15 04:15:38;;;;;;;12.70;6.97;;;;;;;-6.05;87.86;100780.16;6188248;23;20088;-79
2022/12/15 04:18:08;;;;;;;14.18;7.28;;;;;;;-6.04;88.01;100792.03;6189628;23;20124;-79
2022/12/15 04:20:36;;;;;;;12.60;7.07;;;;;;;-6.06;88.22;100781.25;6188231;23;20024;-79
2022/12/15 04:23:06;;;;;;;17.13;8.38;;;;;;;-6.07;87.82;100793.44;6187856;23;20026;-79
2022/12/15 05:32:19;;;;;;;13.63;7.13;;;;;;;-5.85;88.85;100810.34;6203649;23;20018;-79
2022/12/15 05:34:45;;;;;;;13.73;8.73;;;;;;;-5.89;88.85;100804.31;6201608;23;20024;-79
2022/12/15 05:37:12;;;;;;;13.80;7.30;;;;;;;-5.86;88.91;100815.84;6203073;23;20802;-78
2022/12/15 05:39:39;;;;;;;14.07;7.47;;;;;;;-5.84;88.57;100811.09;6206705;23;20001;-79
2022/12/15 05:42:05;;;;;;;11.43;7.40;;;;;;;-5.86;88.41;100808.06;6205633;23;20024;-78
2022/12/15 05:44:32;;;;;;;11.48;7.55;;;;;;;-5.84;88.52;100804.06;6205025;23;20033;-78
2022/12/15 05:46:59;;;;;;;10.85;6.72;;;;;;;-5.82;88.31;100799.31;6205904;23;20029;-79
2022/12/15 05:49:25;;;;;;;13.32;7.35;;;;;;;-5.81;88.37;100810.44;6212675;23;20010;-78
2022/12/15 05:51:52;;;;;;;9.38;6.78;;;;;;;-5.81;88.35;100806.00;6196028;23;20021;-79
2022/12/15 05:54:19;;;;;;;13.95;8.13;;;;;;;-5.80;88.49;100819.75;6194541;23;20060;-79
2022/12/15 05:56:46;;;;;;;14.18;7.28;;;;;;;-5.83;87.96;100828.16;6165848;23;20017;-78
2022/12/15 05:59:17;;;;;;;14.43;8.38;;;;;;;-5.82;87.71;100829.69;6191974;23;20049;-78
2022/12/15 06:01:44;;;;;;;15.38;8.15;;;;;;;-5.80;87.67;100836.06;6190693;23;20022;-79
2022/12/15 06:04:12;;;;;;;12.05;7.40;;;;;;;-5.81;87.79;100839.72;6191396;23;20017;-79
2022/12/15 06:06:39;;;;;;;15.95;7.55;;;;;;;-5.79;87.65;100845.34;6189856;23;20013;-80
2022/12/15 06:09:06;;;;;;;13.73;8.68;;;;;;;-5.75;87.85;100840.25;6190507;23;20024;-80
2022/12/15 06:11:32;;;;;;;16.30;7.82;;;;;;;-5.71;88.00;100841.13;6190616;23;20511;-80
2022/12/15 06:13:59;;;;;;;15.80;8.68;;;;;;;-5.69;88.06;100841.56;6190868;23;20441;-79
2022/12/15 06:16:29;;;;;;;21.00;9.13;;;;;;;-5.67;88.03;100843.81;6189698;23;20440;-79
2022/12/15 06:18:58;;;;;;;14.82;8.55;;;;;;;-5.63;88.10;100844.69;6190736;23;20028;-79
2022/12/15 06:21:29;;;;;;;16.17;8.68;;;;;;;-5.66;88.02;100848.69;6189364;23;20020;-79
2022/12/15 06:23:56;;;;;;;14.18;9.18;;;;;;;-5.71;87.90;100841.88;6189947;23;20045;-79
2022/12/15 06:26:32;;;;;;;17.88;9.10;;;;;;;-5.73;87.76;100841.44;6189025;23;20010;-78
2022/12/15 06:29:05;;;;;;;14.63;9.13;;;;;;;-5.77;87.51;100838.00;6188617;23;20396;-78
2022/12/15 06:31:32;;;;;;;18.45;8.55;;;;;;;-5.81;87.63;100844.91;6190785;23;20013;-79
2022/12/15 06:34:06;;;;;;;15.18;8.63;;;;;;;-5.82;87.79;100846.00;6190960;23;20017;-79
2022/12/15 06:36:33;;;;;;;15.68;8.88;;;;;;;-5.80;87.52;100845.66;6189316;23;20383;-79
2022/12/15 06:39:03;;;;;;;17.45;8.38;;;;;;;-5.79;87.74;100854.97;6189913;23;20042;-79
2022/12/15 06:41:30;;;;;;;15.00;7.38;;;;;;;-5.82;88.11;100856.38;6189347;23;20013;-79
2022/12/15 06:43:58;;;;;;;16.08;8.75;;;;;;;-5.84;87.80;100852.59;6190450;23;20021;-79
2022/12/15 06:46:26;;;;;;;15.98;8.20;;;;;;;-5.84;88.17;100850.00;6189892;23;20014;-79
2022/12/15 06:48:54;;;;;;;20.02;8.73;;;;;;;-5.83;88.03;100854.09;6190221;23;20018;-79
2022/12/15 06:51:20;;;;;;;11.43;7.70;;;;;;;-5.86;88.14;100852.16;6190554;23;20428;-79
2022/12/15 06:53:47;;;;;;;16.33;8.65;;;;;;;-5.87;88.03;100856.56;6189581;23;20557;-79
2022/12/15 06:56:21;;;;;;;12.20;7.82;;;;;;;-5.89;87.92;100863.94;6190809;23;20013;-80
2022/12/15 06:58:58;;;;;;;18.58;9.27;;;;;;;-5.90;88.20;100861.69;6190435;23;20018;-80
2022/12/15 07:01:25;;;;;;;21.58;8.88;;;;;;;-5.90;88.41;100857.25;6190734;23;20014;-79
2022/12/15 07:03:53;;;;;;;15.32;7.95;;;;;;;-5.89;88.69;100856.19;6190153;23;20013;-81
2022/12/15 07:06:21;;;;;;;20.30;9.48;;;;;;;-5.88;88.23;100856.91;6191365;23;20444;-80
2022/12/15 07:08:51;;;;;;;14.40;7.65;;;;;;;-5.89;88.30;100860.59;6190586;23;20471;-80
2022/12/15 07:11:19;;;;;;;15.70;9.00;;;;;;;-5.93;88.58;100854.56;6191403;23;20017;-80
2022/12/15 07:13:53;;;;;;;13.48;8.07;;;;;;;-5.93;88.46;100859.75;6191421;23;20060;-80
2022/12/15 07:16:21;;;;;;;14.27;7.78;;;;;;;-5.94;88.31;100858.97;6191146;23;20014;-80
2022/12/15 07:18:48;;;;;;;12.02;7.38;;;;;;;-5.94;88.23;100861.56;6164436;23;20096;-79
2022/12/15 07:21:15;;;;;;;12.82;8.20;;;;;;;-5.98;88.24;100865.91;6191016;23;20417;-79
2022/12/15 07:23:42;;;;;;;12.65;7.47;;;;;;;-6.01;88.10;100871.75;6188925;23;20021;-77
2022/12/15 07:26:20;;;;;;;14.88;8.20;;;;;;;-6.01;88.12;100868.41;6189920;23;20096;-79
2022/12/15 07:28:47;;;;;;;14.00;7.65;;;;;;;-6.04;88.06;100875.00;6191066;23;20024;-79
2022/12/15 07:31:14;;;;;;;13.48;8.02;;;;;;;-6.03;87.85;100880.94;6190797;23;20443;-77
2022/12/15 07:33:41;;;;;;;13.98;8.23;;;;;;;-6.04;88.58;100879.41;6191186;23;20033;-80
2022/12/15 07:36:08;;;;;;;14.98;9.07;;;;;;;-6.02;88.52;100882.44;6191565;23;20017;-80
2022/12/15 07:38:35;;;;;;;20.77;8.70;;;;;;;-6.01;88.93;100876.94;6189577;23;20018;-80
2022/12/15 07:41:04;;;;;;;17.65;9.52;;;;;;;-6.03;89.50;100878.34;6193562;23;20013;-79
2022/12/15 07:43:31;;;;;;;21.52;9.25;;;;;;;-6.01;89.72;100879.53;6205692;23;20022;-80
2022/12/15 07:45:59;;;;;;;22.10;9.88;;;;;;;-5.97;90.10;100884.78;6209827;23;20199;-78
2022/12/15 07:48:26;;;;;;;22.05;10.82;;;;;;;-6.01;90.00;100886.53;6204926;23;20790;-76
2022/12/15 07:50:56;;;;;;;16.23;9.38;;;;;;;-6.00;90.16;100888.81;6184133;23;20014;-79
2022/12/15 07:53:35;;;;;;;19.75;9.85;;;;;;;-6.00;90.29;100883.63;6207226;23;20048;-77
2022/12/15 07:56:04;;;;;;;18.10;9.45;;;;;;;-6.00;89.98;100881.03;6202649;23;20062;-79
2022/12/15 07:58:35;;;;;;;15.45;9.30;;;;;;;-5.99;90.26;100892.91;6204526;23;20044;-79
2022/12/15 08:01:05;;;;;;;20.95;10.25;;;;;;;-5.99;90.02;100899.91;6207472;23;20013;-78
2022/12/15 08:03:32;;;;;;;18.48;9.45;;;;;;;-5.98;90.45;100896.25;6209037;23;20033;-87
2022/12/15 08:06:04;;;;;;;19.08;10.52;;;;;;;-5.96;90.40;100894.84;6198013;23;20025;-82
2022/12/15 08:08:31;;;;;;;24.50;10.82;;;;;;;-5.92;90.31;100900.13;6193844;23;20029;-78
2022/12/15 08:11:04;;;;;;;16.48;9.57;;;;;;;-5.89;90.53;100912.47;6192670;23;20073;-78
2022/12/15 08:13:32;;;;;;;16.27;9.63;;;;;;;-5.86;90.59;100909.19;6193291;23;20440;-78
2022/12/15 08:16:19;;;;;;;19.27;9.45;;;;;;;-5.80;90.91;100915.69;6190743;23;20025;-78
2022/12/15 08:18:46;;;;;;;15.98;9.80;;;;;;;-5.75;91.35;100913.63;6166414;23;20486;-79
2022/12/15 08:21:13;;;;;;;20.85;10.45;;;;;;;-5.70;91.43;100912.66;6190051;23;20444;-79
2022/12/15 08:23:40;;;;;;;15.52;9.60;;;;;;;-5.64;91.78;100915.78;6192938;23;20021;-80
2022/12/15 08:26:10;;;;;;;17.02;10.15;;;;;;;-5.63;91.62;100910.28;6190971;23;20419;-80
2022/12/15 08:28:38;;;;;;;19.45;9.55;;;;;;;-5.60;91.73;100912.22;6192134;23;20088;-80
2022/12/15 08:31:17;;;;;;;17.80;10.02;;;;;;;-5.60;91.67;100912.22;6190528;23;20089;-79
2022/12/15 08:33:44;;;;;;;15.43;9.25;;;;;;;-5.56;91.88;100904.53;6190939;23;20017;-79
2022/12/15 08:36:13;;;;;;;19.55;11.13;;;;;;;-5.52;92.08;100913.16;6189550;23;20371;-80
2022/12/15 08:38:41;;;;;;;20.10;10.95;;;;;;;-5.48;92.66;100914.03;6190219;23;20069;-79
2022/12/15 08:41:16;;;;;;;22.33;10.32;;;;;;;-5.44;92.59;100926.03;6191565;23;20024;-80
2022/12/15 08:43:43;;;;;;;20.38;11.07;;;;;;;-5.41;92.93;100925.38;6189350;23;20024;-79
2022/12/15 08:46:16;;;;;;;24.00;11.52;;;;;;;-5.36;93.23;100932.19;6189973;23;20014;-79
2022/12/15 08:48:43;;;;;;;21.50;10.55;;;;;;;-5.34;93.87;100937.81;6190995;23;20024;-78
2022/12/15 08:51:10;;;;;;;21.08;11.48;;;;;;;-5.28;94.01;100933.91;6190242;23;20418;-79
2022/12/15 08:53:38;;;;;;;26.88;10.93;;;;;;;-5.23;94.45;100932.94;6190804;23;20013;-78
2022/12/15 08:56:11;;;;;;;21.48;11.43;;;;;;;-5.18;94.72;100930.84;6191486;23;20025;-78
2022/12/15 08:58:37;;;;;;;21.02;11.25;;;;;;;-5.13;95.14;100941.00;6189931;23;20022;-78
2022/12/15 09:01:19;;;;;;;24.88;12.20;;;;;;;-5.09;95.49;100939.28;6190156;23;20009;-78
2022/12/15 09:03:51;;;;;;;21.35;11.90;;;;;;;-5.05;95.38;100945.31;6189574;23;20482;-77
2022/12/15 09:06:26;;;;;;;22.17;12.32;;;;;;;-5.03;95.63;100937.22;6191558;23;20077;-77
2022/12/15 09:08:55;;;;;;;18.92;11.13;;;;;;;-4.98;95.76;100941.41;6190273;23;20431;-78
2022/12/15 09:11:23;;;;;;;22.73;11.55;;;;;;;-4.94;96.05;100932.66;6189657;23;20403;-77
2022/12/15 09:13:50;;;;;;;21.23;11.63;;;;;;;-4.88;96.39;100933.16;6191475;23;20013;-79
2022/12/15 09:16:17;;;;;;;22.48;12.35;;;;;;;-4.83;96.65;100925.16;6165138;23;20033;-78
2022/12/15 09:18:47;;;;;;;21.60;12.23;;;;;;;-4.77;96.64;100923.81;6190277;23;20474;-79
2022/12/15 09:21:16;;;;;;;21.52;12.27;;;;;;;-4.73;96.57;100928.00;6191437;23;20412;-78
2022/12/15 09:23:47;;;;;;;20.17;12.10;;;;;;;-4.67;96.88;100932.97;6189242;23;20021;-78
2022/12/15 09:26:14;;;;;;;20.23;12.07;;;;;;;-4.62;97.10;100938.69;6164973;23;20026;-80
2022/12/15 09:28:41;;;;;;;19.40;11.27;;;;;;;-4.53;97.72;100946.34;6164766;23;20021;-80
2022/12/15 09:31:33;;;;;;;21.60;12.60;;;;;;;-4.41;97.94;100947.06;6191232;23;20483;-80
2022/12/15 09:34:00;;;;;;;26.83;12.20;;;;;;;-4.33;98.38;100949.81;6190669;23;20432;-79
2022/12/15 09:36:29;;;;;;;25.17;12.77;;;;;;;-4.25;98.72;100948.91;6191955;23;20014;-80
2022/12/15 09:38:55;;;;;;;24.27;13.13;;;;;;;-4.22;98.98;100949.00;6191574;23;20022;-80
2022/12/15 09:41:27;;;;;;;25.27;14.40;;;;;;;-4.17;99.19;100948.75;6191633;23;20021;-80
2022/12/15 09:44:11;;;;;;;25.52;13.75;;;;;;;-4.13;99.46;100956.66;6191948;23;20041;-80
2022/12/15 09:47:15;;;;;;;21.50;11.95;;;;;;;-4.05;99.75;100963.53;6191840;23;20037;-80
2022/12/15 09:50:01;;;;;;;24.70;12.68;;;;;;;-3.91;99.83;100958.66;6191632;23;20025;-79
2022/12/15 09:52:45;;;;;;;21.85;13.00;;;;;;;-3.86;100.00;100963.63;6191420;23;20014;-78
2022/12/15 09:55:26;;;;;;;22.38;14.18;;;;;;;-3.81;100.00;100962.59;6164843;23;20107;-81
2022/12/15 09:58:25;;;;;;;29.70;14.82;;;;;;;-3.73;100.00;100970.25;6191797;23;20020;-78
2022/12/15 10:00:57;;;;;;;27.85;12.38;;;;;;;-3.61;100.00;100966.81;6192219;23;20080;-78
2022/12/15 10:03:45;;;;;;;24.83;12.82;;;;;;;-3.57;100.00;100974.66;6208452;23;20014;-80
2022/12/15 10:06:28;;;;;;;24.60;13.88;;;;;;;-3.51;100.00;100979.28;6206545;23;20021;-78
2022/12/15 10:09:01;;;;;;;27.42;13.75;;;;;;;-3.44;100.00;100978.69;6208927;23;20061;-79
2022/12/15 10:12:00;;;;;;;29.00;15.13;;;;;;;-3.38;100.00;100990.38;6211558;23;20020;-80
2022/12/15 10:14:56;;;;;;;25.05;14.50;;;;;;;-3.33;100.00;100986.75;6198063;23;20018;-82
2022/12/15 10:17:42;;;;;;;27.63;14.35;;;;;;;-3.21;100.00;100989.25;6211937;23;20037;-78
2022/12/15 10:20:21;;;;;;;24.25;13.77;;;;;;;-3.11;100.00;100984.25;6204685;23;20857;-79
2022/12/15 10:22:48;;;;;;;464.25;219.90;;;;;;;-3.04;100.00;100981.78;6198198;23;20440;-78
2022/12/15 10:25:21;;;;;;;457.38;227.18;;;;;;;-3.00;100.00;100983.72;6201216;23;20269;-78
2022/12/15 10:28:23;;;;;;;72.85;37.05;;;;;;;-2.98;100.00;100982.28;6196560;23;20048;-79
2022/12/15 10:31:11;;;;;;;34.55;19.75;;;;;;;-2.93;100.00;100978.66;6195090;23;20028;-78
2022/12/15 10:33:41;;;;;;;34.25;17.67;;;;;;;-2.88;100.00;100981.00;6192181;23;20018;-78
2022/12/15 10:36:15;;;;;;;24.90;15.10;;;;;;;-2.83;100.00;100988.56;6190972;23;20017;-78
2022/12/15 10:38:46;;;;;;;28.25;14.80;;;;;;;-2.76;100.00;100989.41;6167071;23;20017;-79
2022/12/15 10:41:23;;;;;;;24.17;13.93;;;;;;;-2.70;100.00;100980.25;6167297;23;20076;-81
2022/12/15 10:43:52;;;;;;;26.48;14.80;;;;;;;-2.63;100.00;100987.44;6191766;23;20408;-83
2022/12/15 10:46:29;;;;;;;22.35;13.45;;;;;;;-2.55;100.00;100994.31;6190048;23;20049;-81
2022/12/15 10:48:58;;;;;;;26.90;14.75;;;;;;;-2.46;100.00;100991.50;6191413;23;20018;-78
2022/12/15 10:51:35;;;;;;;28.95;14.93;;;;;;;-2.32;100.00;100994.34;6164808;23;20029;-79
2022/12/15 10:54:08;;;;;;;27.77;14.18;;;;;;;-2.11;100.00;100986.16;6191583;23;20018;-82
2022/12/15 10:56:51;;;;;;;27.27;13.88;;;;;;;-1.88;100.00;100988.75;6215199;23;20088;-81
2022/12/15 10:59:25;;;;;;;22.30;13.52;;;;;;;-1.77;100.00;100987.84;6189956;23;20444;-82
2022/12/15 11:01:51;;;;;;;24.02;14.10;;;;;;;-1.65;100.00;100986.16;6191643;23;20022;-81
2022/12/15 11:04:30;;;;;;;27.15;14.20;;;;;;;-1.62;99.78;100985.47;6192399;23;20452;-82
2022/12/15 11:07:00;;;;;;;28.13;14.10;;;;;;;-1.62;99.88;100970.53;6195086;23;20010;-78
2022/12/15 11:09:35;;;;;;;26.10;13.82;;;;;;;-1.60;99.71;100967.59;6191342;23;20018;-80
2022/12/15 11:12:59;;;;;;;27.48;14.70;;;;;;;-1.60;99.36;100973.53;6164425;23;20857;-79
2022/12/15 11:15:36;;;;;;;23.08;13.82;;;;;;;-1.50;99.37;100966.97;6185807;23;20460;-79
2022/12/15 11:18:06;;;;;;;23.20;13.93;;;;;;;-1.38;99.07;100969.38;6189479;23;20029;-79
2022/12/15 11:20:38;;;;;;;25.17;13.65;;;;;;;-1.28;98.80;100968.78;6214449;23;20819;-78
2022/12/15 11:23:15;;;;;;;25.63;15.50;;;;;;;-1.17;98.13;100974.88;6191357;23;20013;-80
2022/12/15 11:25:50;;;;;;;27.55;15.48;;;;;;;-1.07;98.61;100969.06;6190925;23;20080;-79
2022/12/15 11:28:26;;;;;;;33.15;15.50;;;;;;;-1.03;97.92;100969.84;6190546;23;20037;-79
2022/12/15 11:30:59;;;;;;;25.85;14.88;;;;;;;-1.02;97.67;100971.34;6165043;23;20154;-80
2022/12/15 11:33:26;;;;;;;29.92;15.38;;;;;;;-1.00;97.66;100971.00;6191019;23;20473;-79
2022/12/15 11:36:01;;;;;;;25.85;14.90;;;;;;;-0.98;97.48;100974.03;6192351;23;20017;-74
2022/12/15 11:38:39;;;;;;;28.60;15.52;;;;;;;-0.96;96.99;100973.66;6192338;23;20172;-79
2022/12/15 11:41:26;;;;;;;32.78;16.02;;;;;;;-0.93;96.64;100970.34;6191743;23;20068;-79
2022/12/15 11:44:20;;;;;;;31.23;15.32;;;;;;;-0.89;97.10;100965.91;6189592;23;20027;-79
2022/12/15 11:46:58;;;;;;;22.73;14.27;;;;;;;-0.82;96.66;100961.53;6190425;23;20002;-79
2022/12/15 11:50:03;;;;;;;27.83;14.77;;;;;;;-0.78;96.65;100961.53;6191812;23;20017;-77
2022/12/15 11:52:51;;;;;;;26.17;14.82;;;;;;;-0.74;96.66;100970.19;6190696;23;20018;-79
2022/12/15 11:55:36;;;;;;;23.48;13.10;;;;;;;-0.70;96.68;100965.75;6191582;23;20326;-78
2022/12/15 11:58:35;;;;;;;24.95;14.43;;;;;;;-0.58;96.47;100972.63;6189178;23;20021;-78
2022/12/15 12:01:11;;;;;;;30.42;14.95;;;;;;;-0.49;96.15;100966.00;6190658;23;20503;-78
2022/12/15 12:03:56;;;;;;;30.05;15.50;;;;;;;-0.41;96.27;100970.19;6165800;23;20014;-79
2022/12/15 12:06:42;;;;;;;27.17;15.35;;;;;;;-0.32;96.14;100980.34;6191698;23;20021;-81
2022/12/15 12:09:23;;;;;;;25.98;15.57;;;;;;;-0.26;96.02;100973.69;6192024;23;20446;-80
2022/12/15 12:12:02;;;;;;;26.30;14.80;;;;;;;-0.20;95.66;100976.72;6190159;23;20022;-80
2022/12/15 12:15:02;;;;;;;24.60;15.32;;;;;;;-0.13;95.45;100977.56;6190764;23;20367;-80
2022/12/15 12:17:43;;;;;;;26.35;15.60;;;;;;;-0.08;95.23;100963.38;6191534;23;20624;-78
2022/12/15 12:20:16;;;;;;;31.25;15.82;;;;;;;-0.06;95.07;100958.53;6198878;23;20017;-78
2022/12/15 12:23:01;;;;;;;33.13;16.23;;;;;;;-0.01;95.29;100955.59;6194057;23;20459;-78
2022/12/15 12:25:30;;;;;;;26.42;16.48;;;;;;;0.00;94.87;100957.09;6168302;23;20104;-79
2022/12/15 12:28:01;;;;;;;30.92;16.35;;;;;;;0.02;94.63;100956.72;6217786;23;20459;-79
2022/12/15 12:30:42;;;;;;;26.23;17.25;;;;;;;-0.01;94.55;100956.34;6194198;23;20022;-80
2022/12/15 12:33:35;;;;;;;25.23;16.15;;;;;;;-0.02;94.59;100951.47;6195044;23;20014;-77
2022/12/15 12:36:10;;;;;;;27.55;16.38;;;;;;;-0.05;94.29;100944.34;6200495;23;20013;-79
2022/12/15 12:38:45;;;;;;;26.52;16.70;;;;;;;-0.10;94.54;100952.53;6199960;23;20527;-77
2022/12/15 12:41:40;;;;;;;27.80;17.17;;;;;;;-0.15;94.46;100942.38;6191961;23;20080;-78
2022/12/15 12:44:28;;;;;;;27.88;17.65;;;;;;;-0.15;94.75;100950.25;6191230;23;20014;-77
2022/12/15 12:46:56;;;;;;;34.20;16.65;;;;;;;-0.13;95.13;100946.16;6192406;23;20020;-78
2022/12/15 12:49:35;;;;;;;28.83;15.68;;;;;;;-0.03;95.10;100953.34;6189712;23;20470;-78
2022/12/15 12:52:05;;;;;;;26.52;16.33;;;;;;;0.02;94.78;100947.00;6189186;23;20022;-78
2022/12/15 12:54:34;;;;;;;29.38;17.45;;;;;;;0.07;94.94;100940.69;6190918;23;20014;-77
2022/12/15 12:57:10;;;;;;;30.25;17.42;;;;;;;0.11;94.74;100939.59;6190217;23;20048;-78
2022/12/15 12:59:41;;;;;;;32.15;16.17;;;;;;;0.12;94.67;100929.88;6164094;23;20013;-78
2022/12/15 13:02:14;;;;;;;27.98;16.73;;;;;;;0.10;94.39;100922.38;6190700;23;20092;-78
2022/12/15 13:05:00;;;;;;;27.67;17.40;;;;;;;0.11;94.43;100921.28;6189405;23;20057;-79
2022/12/15 13:07:39;;;;;;;36.40;17.35;;;;;;;0.11;94.41;100913.41;6164659;23;20017;-77
2022/12/15 13:10:18;;;;;;;31.45;17.70;;;;;;;0.10;94.20;100913.78;6190731;23;20037;-79
2022/12/15 13:12:48;;;;;;;30.33;17.98;;;;;;;0.06;94.00;100913.75;6189575;23;20096;-78
2022/12/15 13:15:30;;;;;;;32.05;17.92;;;;;;;0.05;94.41;100914.13;6190762;23;20022;-77
2022/12/15 13:18:07;;;;;;;32.33;18.52;;;;;;;0.03;94.44;100917.09;6188983;23;20017;-78
2022/12/15 13:20:36;;;;;;;30.52;18.20;;;;;;;0.00;94.26;100908.09;6191192;23;20040;-76
2022/12/15 13:23:15;;;;;;;31.02;18.90;;;;;;;0.00;94.57;100912.59;6189976;23;20084;-77
2022/12/15 13:26:05;;;;;;;34.35;19.98;;;;;;;-0.02;94.45;100915.59;6190066;23;20587;-77
2022/12/15 13:28:38;;;;;;;36.65;19.67;;;;;;;-0.04;94.55;100906.59;6178797;23;20092;-76
2022/12/15 13:31:20;;;;;;;34.03;19.90;;;;;;;-0.07;94.63;100902.09;6190768;23;20021;-76
2022/12/15 13:33:51;;;;;;;33.67;18.70;;;;;;;-0.06;94.67;100901.72;6190842;23;20024;-75
2022/12/15 13:36:38;;;;;;;29.77;19.02;;;;;;;-0.04;94.57;100896.13;6191099;23;20013;-80
2022/12/15 13:39:11;;;;;;;33.70;18.83;;;;;;;-0.01;94.99;100898.78;6189019;23;20013;-75
2022/12/15 13:41:43;;;;;;;31.08;19.08;;;;;;;0.01;94.59;100898.38;6190874;23;20320;-77
2022/12/15 13:44:37;;;;;;;35.05;19.10;;;;;;;0.05;94.91;100896.53;6191177;23;20033;-84
2022/12/15 13:47:11;;;;;;;29.58;18.40;;;;;;;0.09;94.90;100896.56;6191254;23;20038;-82
2022/12/15 13:49:55;;;;;;;33.97;19.58;;;;;;;0.11;94.99;100891.72;6191469;23;20018;-80
2022/12/15 13:52:53;;;;;;;31.95;19.67;;;;;;;0.17;95.22;100901.50;6190144;23;20022;-80
2022/12/15 13:56:12;;;;;;;34.15;19.63;;;;;;;0.24;95.26;100906.78;6189229;23;20514;-78
2022/12/15 13:58:53;;;;;;;30.40;18.88;;;;;;;0.29;95.53;100898.59;6181198;23;20013;-78
2022/12/15 14:01:24;;;;;;;33.65;20.35;;;;;;;0.33;95.42;100896.75;6189420;23;20024;-79
2022/12/15 14:04:15;;;;;;;36.13;20.58;;;;;;;0.37;95.38;100896.78;6193711;23;20044;-82